sensor_id;sensor_type;location;lat;lon;timestamp;temperature;humidity
9179;DHT22;4624;48.126;11.546;2022-12-07T00:01:52;3.90;99.90
9179;DHT22;4624;48.126;11.546;2022-12-07T00:04:18;3.90;99.90
9179;DHT22;4624;48.126;11.546;2022-12-07T00:06:47;3.80;99.90
9179;DHT22;4624;48.126;11.546;2022-12-07T00:09:17;3.90;99.90
9179;DHT22;4624;48.126;11.546;2022-12-07T00:11:44;3.90;99.90
9179;DHT22;4624;48.126;11.546;2022-12-07T00:14:14;3.90;99.90
9179;DHT22;4624;48.126;11.546;2022-12-07T00:16:42;3.90;99.90
9179;DHT22;4624;48.126;11.546;2022-12-07T00:19:10;3.80;99.90
9179;DHT22;4624;48.126;11.546;2022-12-07T00:21:36;3.90;99.90
9179;DHT22;4624;48.126;11.546;2022-12-07T00:24:05;3.80;99.90
9179;DHT22;4624;48.126;11.546;2022-12-07T00:26:34;3.80;99.90
9179;DHT22;4624;48.126;11.546;2022-12-07T00:29:03;3.80;99.90
9179;DHT22;4624;48.126;11.546;2022-12-07T00:31:33;3.80;99.90
9179;DHT22;4624;48.126;11.546;2022-12-07T00:34:01;3.80;99.90
9179;DHT22;4624;48.126;11.546;2022-12-07T00:36:28;3.80;99.90
9179;DHT22;4624;48.126;11.546;2022-12-07T00:38:57;3.80;99.90
9179;DHT22;4624;48.126;11.546;2022-12-07T00:41:26;3.80;99.90
9179;DHT22;4624;48.126;11.546;2022-12-07T00:43:53;3.80;99.90
9179;DHT22;4624;48.126;11.546;2022-12-07T00:46:21;3.80;99.90
9179;DHT22;4624;48.126;11.546;2022-12-07T00:48:50;3.80;99.90
9179;DHT22;4624;48.126;11.546;2022-12-07T00:51:19;3.80;99.90
9179;DHT22;4624;48.126;11.546;2022-12-07T00:53:47;3.70;99.90
9179;DHT22;4624;48.126;11.546;2022-12-07T00:56:15;3.70;99.90
9179;DHT22;4624;48.126;11.546;2022-12-07T00:58:42;3.70;99.90
9179;DHT22;4624;48.126;11.546;2022-12-07T01:01:10;3.70;99.90
9179;DHT22;4624;48.126;11.546;2022-12-07T01:03:38;3.70;99.90
9179;DHT22;4624;48.126;11.546;2022-12-07T01:06:06;3.70;99.90
9179;DHT22;4624;48.126;11.546;2022-12-07T01:08:33;3.70;99.90
9179;DHT22;4624;48.126;11.546;2022-12-07T01:11:01;3.70;99.90
9179;DHT22;4624;48.126;11.546;2022-12-07T01:13:28;3.70;99.90
9179;DHT22;4624;48.126;11.546;2022-12-07T01:15:57;3.70;99.90
9179;DHT22;4624;48.126;11.546;2022-12-07T01:18:25;3.60;99.90
9179;DHT22;4624;48.126;11.546;2022-12-07T01:20:59;3.60;99.90
9179;DHT22;4624;48.126;11.546;2022-12-07T01:23:28;3.70;99.90
9179;DHT22;4624;48.126;11.546;2022-12-07T01:25:56;3.70;99.90
9179;DHT22;4624;48.126;11.546;2022-12-07T01:28:23;3.60;99.90
9179;DHT22;4624;48.126;11.546;2022-12-07T01:31:00;3.60;99.90
9179;DHT22;4624;48.126;11.546;2022-12-07T01:33:28;3.60;99.90
9179;DHT22;4624;48.126;11.546;2022-12-07T01:36:00;3.60;99.90
9179;DHT22;4624;48.126;11.546;2022-12-07T01:38:29;3.60;99.90
9179;DHT22;4624;48.126;11.546;2022-12-07T01:40:56;3.60;99.90
9179;DHT22;4624;48.126;11.546;2022-12-07T01:43:25;3.60;99.90
9179;DHT22;4624;48.126;11.546;2022-12-07T01:45:53;3.60;99.90
9179;DHT22;4624;48.126;11.546;2022-12-07T01:48:23;3.60;99.90
9179;DHT22;4624;48.126;11.546;2022-12-07T01:50:52;3.60;99.90
9179;DHT22;4624;48.126;11.546;2022-12-07T01:53:20;3.60;99.90
9179;DHT22;4624;48.126;11.546;2022-12-07T01:55:51;3.60;99.90
9179;DHT22;4624;48.126;11.546;2022-12-07T01:58:18;3.60;99.90
9179;DHT22;4624;48.126;11.546;2022-12-07T02:00:45;3.60;99.90
9179;DHT22;4624;48.126;11.546;2022-12-07T02:03:16;3.60;99.90
9179;DHT22;4624;48.126;11.546;2022-12-07T02:05:45;3.60;99.90
9179;DHT22;4624;48.126;11.546;2022-12-07T02:08:13;3.60;99.90
9179;DHT22;4624;48.126;11.546;2022-12-07T02:10:40;3.60;99.90
9179;DHT22;4624;48.126;11.546;2022-12-07T02:13:11;3.60;99.90
9179;DHT22;4624;48.126;11.546;2022-12-07T02:15:59;3.60;99.90
9179;DHT22;4624;48.126;11.546;2022-12-07T02:18:42;3.60;99.90
9179;DHT22;4624;48.126;11.546;2022-12-07T02:21:14;3.60;99.90
9179;DHT22;4624;48.126;11.546;2022-12-07T02:24:10;3.60;99.90
9179;DHT22;4624;48.126;11.546;2022-12-07T02:30:00;3.60;99.90
9179;DHT22;4624;48.126;11.546;2022-12-07T02:32:33;3.60;99.90
9179;DHT22;4624;48.126;11.546;2022-12-07T02:35:09;3.60;99.90
9179;DHT22;4624;48.126;11.546;2022-12-07T02:37:40;3.50;99.90
9179;DHT22;4624;48.126;11.546;2022-12-07T02:40:12;3.50;99.90
9179;DHT22;4624;48.126;11.546;2022-12-07T02:42:47;3.60;99.90
9179;DHT22;4624;48.126;11.546;2022-12-07T02:45:18;3.60;99.90
9179;DHT22;4624;48.126;11.546;2022-12-07T02:47:48;3.60;99.90
9179;DHT22;4624;48.126;11.546;2022-12-07T02:50:18;3.60;99.90
9179;DHT22;4624;48.126;11.546;2022-12-07T02:52:45;3.60;99.90
9179;DHT22;4624;48.126;11.546;2022-12-07T02:55:13;3.60;99.90
9179;DHT22;4624;48.126;11.546;2022-12-07T02:57:57;3.60;99.90
9179;DHT22;4624;48.126;11.546;2022-12-07T03:00:31;3.60;99.90
9179;DHT22;4624;48.126;11.546;2022-12-07T03:03:06;3.60;99.90
9179;DHT22;4624;48.126;11.546;2022-12-07T03:05:46;3.60;99.90
9179;DHT22;4624;48.126;11.546;2022-12-07T03:08:19;3.70;99.90
9179;DHT22;4624;48.126;11.546;2022-12-07T03:10:54;3.60;99.90
9179;DHT22;4624;48.126;11.546;2022-12-07T03:13:25;3.60;99.90
9179;DHT22;4624;48.126;11.546;2022-12-07T03:15:59;3.60;99.90
9179;DHT22;4624;48.126;11.546;2022-12-07T03:18:31;3.60;99.90
9179;DHT22;4624;48.126;11.546;2022-12-07T03:21:03;3.60;99.90
9179;DHT22;4624;48.126;11.546;2022-12-07T03:23:32;3.60;99.90
9179;DHT22;4624;48.126;11.546;2022-12-07T03:26:01;3.70;99.90
9179;DHT22;4624;48.126;11.546;2022-12-07T03:28:32;3.70;99.90
9179;DHT22;4624;48.126;11.546;2022-12-07T03:31:03;3.70;99.90
9179;DHT22;4624;48.126;11.546;2022-12-07T03:33:33;3.70;99.90
9179;DHT22;4624;48.126;11.546;2022-12-07T03:36:05;3.70;99.90
9179;DHT22;4624;48.126;11.546;2022-12-07T03:38:36;3.70;99.90
9179;DHT22;4624;48.126;11.546;2022-12-07T03:41:06;3.70;99.90
9179;DHT22;4624;48.126;11.546;2022-12-07T03:43:35;3.70;99.90
9179;DHT22;4624;48.126;11.546;2022-12-07T03:46:13;3.70;99.90
9179;DHT22;4624;48.126;11.546;2022-12-07T03:48:47;3.70;99.90
9179;DHT22;4624;48.126;11.546;2022-12-07T03:51:21;3.70;99.90
9179;DHT22;4624;48.126;11.546;2022-12-07T03:53:52;3.70;99.90
9179;DHT22;4624;48.126;11.546;2022-12-07T03:56:22;3.70;99.90
9179;DHT22;4624;48.126;11.546;2022-12-07T03:58:50;3.70;99.90
9179;DHT22;4624;48.126;11.546;2022-12-07T04:01:19;3.70;99.90
9179;DHT22;4624;48.126;11.546;2022-12-07T04:03:46;3.70;99.90
9179;DHT22;4624;48.126;11.546;2022-12-07T04:06:12;3.70;99.90
9179;DHT22;4624;48.126;11.546;2022-12-07T04:08:39;3.70;99.90
9179;DHT22;4624;48.126;11.546;2022-12-07T04:11:06;3.70;99.90
9179;DHT22;4624;48.126;11.546;2022-12-07T04:13:33;3.70;99.90
9179;DHT22;4624;48.126;11.546;2022-12-07T04:16:22;3.70;99.90
9179;DHT22;4624;48.126;11.546;2022-12-07T04:18:48;3.70;99.90
9179;DHT22;4624;48.126;11.546;2022-12-07T04:21:15;3.70;99.90
9179;DHT22;4624;48.126;11.546;2022-12-07T04:23:42;3.60;99.90
9179;DHT22;4624;48.126;11.546;2022-12-07T04:26:09;3.70;99.90
9179;DHT22;4624;48.126;11.546;2022-12-07T04:28:35;3.70;99.90
9179;DHT22;4624;48.126;11.546;2022-12-07T04:31:02;3.70;99.90
9179;DHT22;4624;48.126;11.546;2022-12-07T04:33:30;3.70;99.90
9179;DHT22;4624;48.126;11.546;2022-12-07T04:35:57;3.70;99.90
9179;DHT22;4624;48.126;11.546;2022-12-07T04:38:24;3.70;99.90
9179;DHT22;4624;48.126;11.546;2022-12-07T04:40:50;3.70;99.90
9179;DHT22;4624;48.126;11.546;2022-12-07T04:43:17;3.70;99.90
9179;DHT22;4624;48.126;11.546;2022-12-07T04:45:46;3.70;99.90
9179;DHT22;4624;48.126;11.546;2022-12-07T04:48:13;3.70;99.90
9179;DHT22;4624;48.126;11.546;2022-12-07T04:50:41;3.70;99.90
9179;DHT22;4624;48.126;11.546;2022-12-07T04:53:08;3.70;99.90
9179;DHT22;4624;48.126;11.546;2022-12-07T04:55:35;3.60;99.90
9179;DHT22;4624;48.126;11.546;2022-12-07T04:58:02;3.60;99.90
9179;DHT22;4624;48.126;11.546;2022-12-07T05:00:29;3.60;99.90
9179;DHT22;4624;48.126;11.546;2022-12-07T05:02:55;3.60;99.90
9179;DHT22;4624;48.126;11.546;2022-12-07T05:05:22;3.60;99.90
9179;DHT22;4624;48.126;11.546;2022-12-07T05:07:51;3.60;99.90
9179;DHT22;4624;48.126;11.546;2022-12-07T05:10:18;3.60;99.90
9179;DHT22;4624;48.126;11.546;2022-12-07T05:12:45;3.60;99.90
9179;DHT22;4624;48.126;11.546;2022-12-07T05:15:13;3.60;99.90
9179;DHT22;4624;48.126;11.546;2022-12-07T05:17:40;3.50;99.90
9179;DHT22;4624;48.126;11.546;2022-12-07T05:20:07;3.50;99.90
9179;DHT22;4624;48.126;11.546;2022-12-07T05:22:34;3.50;99.90
9179;DHT22;4624;48.126;11.546;2022-12-07T05:25:03;3.50;99.90
9179;DHT22;4624;48.126;11.546;2022-12-07T05:27:30;3.50;99.90
9179;DHT22;4624;48.126;11.546;2022-12-07T05:29:57;3.50;99.90
9179;DHT22;4624;48.126;11.546;2022-12-07T05:32:24;3.50;99.90
9179;DHT22;4624;48.126;11.546;2022-12-07T05:34:50;3.50;99.90
9179;DHT22;4624;48.126;11.546;2022-12-07T05:37:20;3.50;99.90
9179;DHT22;4624;48.126;11.546;2022-12-07T05:39:46;3.50;99.90
9179;DHT22;4624;48.126;11.546;2022-12-07T05:42:14;3.50;99.90
9179;DHT22;4624;48.126;11.546;2022-12-07T05:44:44;3.50;99.90
9179;DHT22;4624;48.126;11.546;2022-12-07T05:47:11;3.50;99.90
9179;DHT22;4624;48.126;11.546;2022-12-07T05:49:38;3.40;99.90
9179;DHT22;4624;48.126;11.546;2022-12-07T05:52:05;3.40;99.90
9179;DHT22;4624;48.126;11.546;2022-12-07T05:54:32;3.40;99.90
9179;DHT22;4624;48.126;11.546;2022-12-07T05:56:59;3.40;99.90
9179;DHT22;4624;48.126;11.546;2022-12-07T05:59:27;3.30;99.90
9179;DHT22;4624;48.126;11.546;2022-12-07T06:01:55;3.30;99.90
9179;DHT22;4624;48.126;11.546;2022-12-07T06:04:23;3.30;99.90
9179;DHT22;4624;48.126;11.546;2022-12-07T06:06:50;3.30;99.90
9179;DHT22;4624;48.126;11.546;2022-12-07T06:09:17;3.30;99.90
9179;DHT22;4624;48.126;11.546;2022-12-07T06:11:45;3.30;99.90
9179;DHT22;4624;48.126;11.546;2022-12-07T06:14:30;3.30;99.90
9179;DHT22;4624;48.126;11.546;2022-12-07T06:16:57;3.30;99.90
9179;DHT22;4624;48.126;11.546;2022-12-07T06:19:24;3.30;99.90
9179;DHT22;4624;48.126;11.546;2022-12-07T06:21:51;3.30;99.90
9179;DHT22;4624;48.126;11.546;2022-12-07T06:24:18;3.30;99.90
9179;DHT22;4624;48.126;11.546;2022-12-07T06:26:46;3.40;99.90
9179;DHT22;4624;48.126;11.546;2022-12-07T06:29:13;3.30;99.90
9179;DHT22;4624;48.126;11.546;2022-12-07T06:31:41;3.40;99.90
9179;DHT22;4624;48.126;11.546;2022-12-07T06:34:10;3.40;99.90
9179;DHT22;4624;48.126;11.546;2022-12-07T06:36:37;3.30;99.90
9179;DHT22;4624;48.126;11.546;2022-12-07T06:39:05;3.30;99.90
9179;DHT22;4624;48.126;11.546;2022-12-07T06:41:33;3.30;99.90
9179;DHT22;4624;48.126;11.546;2022-12-07T06:43:59;3.30;99.90
9179;DHT22;4624;48.126;11.546;2022-12-07T06:46:26;3.20;99.90
9179;DHT22;4624;48.126;11.546;2022-12-07T06:48:54;3.30;99.90
9179;DHT22;4624;48.126;11.546;2022-12-07T06:51:21;3.30;99.90
9179;DHT22;4624;48.126;11.546;2022-12-07T06:53:48;3.30;99.90
9179;DHT22;4624;48.126;11.546;2022-12-07T06:56:15;3.30;99.90
9179;DHT22;4624;48.126;11.546;2022-12-07T06:58:42;3.30;99.90
9179;DHT22;4624;48.126;11.546;2022-12-07T07:01:09;3.30;99.90
9179;DHT22;4624;48.126;11.546;2022-12-07T07:03:37;3.30;99.90
9179;DHT22;4624;48.126;11.546;2022-12-07T07:06:06;3.30;99.90
9179;DHT22;4624;48.126;11.546;2022-12-07T07:08:33;3.40;99.90
9179;DHT22;4624;48.126;11.546;2022-12-07T07:11:00;3.40;99.90
9179;DHT22;4624;48.126;11.546;2022-12-07T07:13:27;3.30;99.90
9179;DHT22;4624;48.126;11.546;2022-12-07T07:15:54;3.30;99.90
9179;DHT22;4624;48.126;11.546;2022-12-07T07:18:21;3.30;99.90
9179;DHT22;4624;48.126;11.546;2022-12-07T07:20:47;3.30;99.90
9179;DHT22;4624;48.126;11.546;2022-12-07T07:23:16;3.30;99.90
9179;DHT22;4624;48.126;11.546;2022-12-07T07:25:42;3.30;99.90
9179;DHT22;4624;48.126;11.546;2022-12-07T07:28:10;3.30;99.90
9179;DHT22;4624;48.126;11.546;2022-12-07T07:30:37;3.30;99.90
9179;DHT22;4624;48.126;11.546;2022-12-07T07:33:04;3.30;99.90
9179;DHT22;4624;48.126;11.546;2022-12-07T07:35:32;3.30;99.90
9179;DHT22;4624;48.126;11.546;2022-12-07T07:37:59;3.30;99.90
9179;DHT22;4624;48.126;11.546;2022-12-07T07:40:28;3.30;99.90
9179;DHT22;4624;48.126;11.546;2022-12-07T07:42:56;3.30;99.90
9179;DHT22;4624;48.126;11.546;2022-12-07T07:45:24;3.20;99.90
9179;DHT22;4624;48.126;11.546;2022-12-07T07:47:51;3.20;99.90
9179;DHT22;4624;48.126;11.546;2022-12-07T07:50:19;3.10;99.90
9179;DHT22;4624;48.126;11.546;2022-12-07T07:52:46;3.20;99.90
9179;DHT22;4624;48.126;11.546;2022-12-07T07:55:13;3.20;99.90
9179;DHT22;4624;48.126;11.546;2022-12-07T07:57:41;3.10;99.90
9179;DHT22;4624;48.126;11.546;2022-12-07T08:00:10;3.10;99.90
9179;DHT22;4624;48.126;11.546;2022-12-07T08:02:37;3.00;99.90
9179;DHT22;4624;48.126;11.546;2022-12-07T08:05:04;3.10;99.90
9179;DHT22;4624;48.126;11.546;2022-12-07T08:07:31;3.20;99.90
9179;DHT22;4624;48.126;11.546;2022-12-07T08:09:58;3.40;99.90
9179;DHT22;4624;48.126;11.546;2022-12-07T08:12:25;3.40;99.90
9179;DHT22;4624;48.126;11.546;2022-12-07T08:14:53;3.40;99.90
9179;DHT22;4624;48.126;11.546;2022-12-07T08:17:20;3.40;99.90
9179;DHT22;4624;48.126;11.546;2022-12-07T08:19:46;3.50;99.90
9179;DHT22;4624;48.126;11.546;2022-12-07T08:22:13;3.60;99.90
9179;DHT22;4624;48.126;11.546;2022-12-07T08:24:40;3.60;99.90
9179;DHT22;4624;48.126;11.546;2022-12-07T08:27:06;3.80;99.90
9179;DHT22;4624;48.126;11.546;2022-12-07T08:29:33;3.90;99.90
9179;DHT22;4624;48.126;11.546;2022-12-07T08:32:01;4.00;99.90
9179;DHT22;4624;48.126;11.546;2022-12-07T08:34:28;3.90;99.90
9179;DHT22;4624;48.126;11.546;2022-12-07T08:36:55;3.90;99.90
9179;DHT22;4624;48.126;11.546;2022-12-07T08:39:22;3.80;99.90
9179;DHT22;4624;48.126;11.546;2022-12-07T08:41:48;3.80;99.90
9179;DHT22;4624;48.126;11.546;2022-12-07T08:44:15;3.80;99.90
9179;DHT22;4624;48.126;11.546;2022-12-07T08:46:45;3.70;99.90
9179;DHT22;4624;48.126;11.546;2022-12-07T08:49:17;3.70;99.90
9179;DHT22;4624;48.126;11.546;2022-12-07T08:51:45;3.60;99.90
9179;DHT22;4624;48.126;11.546;2022-12-07T08:54:15;3.60;99.90
9179;DHT22;4624;48.126;11.546;2022-12-07T08:56:43;3.60;99.90
9179;DHT22;4624;48.126;11.546;2022-12-07T08:59:12;3.60;99.90
9179;DHT22;4624;48.126;11.546;2022-12-07T09:01:39;3.70;99.90
9179;DHT22;4624;48.126;11.546;2022-12-07T09:04:06;3.70;99.90
9179;DHT22;4624;48.126;11.546;2022-12-07T09:06:34;3.70;99.90
9179;DHT22;4624;48.126;11.546;2022-12-07T09:09:02;3.70;99.90
9179;DHT22;4624;48.126;11.546;2022-12-07T09:11:29;3.60;99.90
9179;DHT22;4624;48.126;11.546;2022-12-07T09:13:56;3.70;99.90
9179;DHT22;4624;48.126;11.546;2022-12-07T09:16:23;3.70;99.90
9179;DHT22;4624;48.126;11.546;2022-12-07T09:18:50;3.70;99.90
9179;DHT22;4624;48.126;11.546;2022-12-07T09:21:16;3.70;99.90
9179;DHT22;4624;48.126;11.546;2022-12-07T09:23:44;3.70;99.90
9179;DHT22;4624;48.126;11.546;2022-12-07T09:26:11;3.80;99.90
9179;DHT22;4624;48.126;11.546;2022-12-07T09:28:38;3.80;99.90
9179;DHT22;4624;48.126;11.546;2022-12-07T09:31:05;3.90;99.90
9179;DHT22;4624;48.126;11.546;2022-12-07T09:33:32;3.90;99.90
9179;DHT22;4624;48.126;11.546;2022-12-07T09:35:59;3.90;99.90
9179;DHT22;4624;48.126;11.546;2022-12-07T09:38:26;4.00;99.90
9179;DHT22;4624;48.126;11.546;2022-12-07T09:40:56;4.10;99.90
9179;DHT22;4624;48.126;11.546;2022-12-07T09:43:24;4.30;99.90
9179;DHT22;4624;48.126;11.546;2022-12-07T09:45:54;4.40;99.90
9179;DHT22;4624;48.126;11.546;2022-12-07T09:48:24;4.50;99.90
9179;DHT22;4624;48.126;11.546;2022-12-07T09:50:53;4.60;99.90
9179;DHT22;4624;48.126;11.546;2022-12-07T09:53:24;4.70;99.90
9179;DHT22;4624;48.126;11.546;2022-12-07T09:55:52;4.70;99.90
9179;DHT22;4624;48.126;11.546;2022-12-07T09:58:23;4.70;99.90
9179;DHT22;4624;48.126;11.546;2022-12-07T10:00:51;4.80;99.90
9179;DHT22;4624;48.126;11.546;2022-12-07T10:03:19;5.00;99.90
9179;DHT22;4624;48.126;11.546;2022-12-07T10:05:49;5.00;99.90
9179;DHT22;4624;48.126;11.546;2022-12-07T10:08:17;5.10;99.90
9179;DHT22;4624;48.126;11.546;2022-12-07T10:10:45;5.20;99.90
9179;DHT22;4624;48.126;11.546;2022-12-07T10:13:13;5.20;99.90
9179;DHT22;4624;48.126;11.546;2022-12-07T10:15:44;5.30;99.90
9179;DHT22;4624;48.126;11.546;2022-12-07T10:18:28;5.30;99.90
9179;DHT22;4624;48.126;11.546;2022-12-07T10:21:05;5.40;99.90
9179;DHT22;4624;48.126;11.546;2022-12-07T10:23:35;5.60;99.90
9179;DHT22;4624;48.126;11.546;2022-12-07T10:26:20;5.70;99.90
9179;DHT22;4624;48.126;11.546;2022-12-07T10:28:47;5.80;99.90
9179;DHT22;4624;48.126;11.546;2022-12-07T10:31:18;5.90;99.90
9179;DHT22;4624;48.126;11.546;2022-12-07T10:33:50;6.00;99.90
9179;DHT22;4624;48.126;11.546;2022-12-07T10:36:21;6.10;99.90
9179;DHT22;4624;48.126;11.546;2022-12-07T10:38:49;6.20;99.90
9179;DHT22;4624;48.126;11.546;2022-12-07T10:41:16;6.20;99.90
9179;DHT22;4624;48.126;11.546;2022-12-07T10:43:49;6.30;99.90
9179;DHT22;4624;48.126;11.546;2022-12-07T10:46:48;6.40;99.90
9179;DHT22;4624;48.126;11.546;2022-12-07T10:49:45;6.70;99.90
9179;DHT22;4624;48.126;11.546;2022-12-07T10:52:29;6.90;99.60
9179;DHT22;4624;48.126;11.546;2022-12-07T10:55:11;7.00;99.30
9179;DHT22;4624;48.126;11.546;2022-12-07T10:57:49;7.20;99.00
9179;DHT22;4624;48.126;11.546;2022-12-07T11:00:22;7.60;98.90
9179;DHT22;4624;48.126;11.546;2022-12-07T11:05:52;8.70;98.00
9179;DHT22;4624;48.126;11.546;2022-12-07T11:08:30;9.20;97.30
9179;DHT22;4624;48.126;11.546;2022-12-07T11:11:06;9.10;96.70
9179;DHT22;4624;48.126;11.546;2022-12-07T11:13:40;9.20;96.20
9179;DHT22;4624;48.126;11.546;2022-12-07T11:16:19;9.00;95.40
9179;DHT22;4624;48.126;11.546;2022-12-07T11:19:05;8.90;95.30
9179;DHT22;4624;48.126;11.546;2022-12-07T11:21:42;8.60;94.90
9179;DHT22;4624;48.126;11.546;2022-12-07T11:24:15;8.70;95.00
9179;DHT22;4624;48.126;11.546;2022-12-07T11:26:57;9.00;94.50
9179;DHT22;4624;48.126;11.546;2022-12-07T11:29:40;9.30;93.40
9179;DHT22;4624;48.126;11.546;2022-12-07T11:32:15;9.00;92.40
9179;DHT22;4624;48.126;11.546;2022-12-07T11:34:54;8.30;92.50
9179;DHT22;4624;48.126;11.546;2022-12-07T11:37:28;8.00;92.80
9179;DHT22;4624;48.126;11.546;2022-12-07T11:40:00;7.90;93.10
9179;DHT22;4624;48.126;11.546;2022-12-07T11:42:31;8.20;92.80
9179;DHT22;4624;48.126;11.546;2022-12-07T11:45:09;9.00;92.40
9179;DHT22;4624;48.126;11.546;2022-12-07T11:47:43;9.40;91.40
9179;DHT22;4624;48.126;11.546;2022-12-07T11:50:24;9.30;91.10
9179;DHT22;4624;48.126;11.546;2022-12-07T11:52:56;9.40;91.00
9179;DHT22;4624;48.126;11.546;2022-12-07T11:55:29;9.30;91.00
9179;DHT22;4624;48.126;11.546;2022-12-07T11:58:03;9.00;90.70
9179;DHT22;4624;48.126;11.546;2022-12-07T12:00:30;8.70;90.70
9179;DHT22;4624;48.126;11.546;2022-12-07T12:03:01;8.50;90.50
9179;DHT22;4624;48.126;11.546;2022-12-07T12:05:30;8.40;90.50
9179;DHT22;4624;48.126;11.546;2022-12-07T12:08:11;8.20;90.50
9179;DHT22;4624;48.126;11.546;2022-12-07T12:10:47;8.80;90.50
9179;DHT22;4624;48.126;11.546;2022-12-07T12:16:50;8.40;90.20
9179;DHT22;4624;48.126;11.546;2022-12-07T12:19:33;7.90;90.50
9179;DHT22;4624;48.126;11.546;2022-12-07T12:22:06;9.00;90.30
9179;DHT22;4624;48.126;11.546;2022-12-07T12:24:38;9.20;87.70
9179;DHT22;4624;48.126;11.546;2022-12-07T12:27:08;8.50;88.50
9179;DHT22;4624;48.126;11.546;2022-12-07T12:29:38;8.00;89.90
9179;DHT22;4624;48.126;11.546;2022-12-07T12:32:11;7.50;90.30
9179;DHT22;4624;48.126;11.546;2022-12-07T12:34:41;7.10;90.60
9179;DHT22;4624;48.126;11.546;2022-12-07T12:37:44;6.80;91.10
9179;DHT22;4624;48.126;11.546;2022-12-07T12:40:40;6.50;91.60
9179;DHT22;4624;48.126;11.546;2022-12-07T12:43:44;6.20;91.80
9179;DHT22;4624;48.126;11.546;2022-12-07T12:46:37;6.10;92.20
9179;DHT22;4624;48.126;11.546;2022-12-07T12:58:39;5.70;93.20
9179;DHT22;4624;48.126;11.546;2022-12-07T13:04:29;5.70;93.40
9179;DHT22;4624;48.126;11.546;2022-12-07T13:06:57;5.70;93.50
9179;DHT22;4624;48.126;11.546;2022-12-07T13:09:26;5.70;93.60
9179;DHT22;4624;48.126;11.546;2022-12-07T13:12:02;5.70;93.70
9179;DHT22;4624;48.126;11.546;2022-12-07T13:17:57;5.60;93.90
9179;DHT22;4624;48.126;11.546;2022-12-07T13:20:45;5.60;94.20
9179;DHT22;4624;48.126;11.546;2022-12-07T13:23:14;5.70;94.70
9179;DHT22;4624;48.126;11.546;2022-12-07T13:25:49;5.80;94.70
9179;DHT22;4624;48.126;11.546;2022-12-07T13:28:20;5.80;94.70
9179;DHT22;4624;48.126;11.546;2022-12-07T13:30:58;5.90;94.60
9179;DHT22;4624;48.126;11.546;2022-12-07T13:33:28;5.80;94.40
9179;DHT22;4624;48.126;11.546;2022-12-07T13:35:56;5.90;94.50
9179;DHT22;4624;48.126;11.546;2022-12-07T13:38:27;5.80;94.40
9179;DHT22;4624;48.126;11.546;2022-12-07T13:41:02;5.90;94.30
9179;DHT22;4624;48.126;11.546;2022-12-07T13:43:31;5.90;94.30
9179;DHT22;4624;48.126;11.546;2022-12-07T13:45:58;5.90;94.10
9179;DHT22;4624;48.126;11.546;2022-12-07T13:48:31;5.90;94.10
9179;DHT22;4624;48.126;11.546;2022-12-07T13:51:00;5.90;94.10
9179;DHT22;4624;48.126;11.546;2022-12-07T13:53:28;5.80;94.00
9179;DHT22;4624;48.126;11.546;2022-12-07T13:55:56;5.70;93.90
9179;DHT22;4624;48.126;11.546;2022-12-07T13:58:33;5.60;94.00
9179;DHT22;4624;48.126;11.546;2022-12-07T14:01:02;5.60;94.00
9179;DHT22;4624;48.126;11.546;2022-12-07T14:03:31;5.50;94.10
9179;DHT22;4624;48.126;11.546;2022-12-07T14:06:17;5.50;94.10
9179;DHT22;4624;48.126;11.546;2022-12-07T14:08:44;5.40;94.10
9179;DHT22;4624;48.126;11.546;2022-12-07T14:11:16;5.30;94.00
9179;DHT22;4624;48.126;11.546;2022-12-07T14:13:56;5.20;94.00
9179;DHT22;4624;48.126;11.546;2022-12-07T14:16:28;5.10;94.10
9179;DHT22;4624;48.126;11.546;2022-12-07T14:18:56;5.10;94.10
9179;DHT22;4624;48.126;11.546;2022-12-07T14:21:25;5.10;94.10
9179;DHT22;4624;48.126;11.546;2022-12-07T14:24:16;5.00;94.10
9179;DHT22;4624;48.126;11.546;2022-12-07T14:26:44;5.00;94.20
9179;DHT22;4624;48.126;11.546;2022-12-07T14:29:32;4.90;94.20
9179;DHT22;4624;48.126;11.546;2022-12-07T14:32:21;4.90;94.30
9179;DHT22;4624;48.126;11.546;2022-12-07T14:34:54;4.90;94.20
9179;DHT22;4624;48.126;11.546;2022-12-07T14:37:21;4.80;94.20
9179;DHT22;4624;48.126;11.546;2022-12-07T14:39:48;4.80;94.20
9179;DHT22;4624;48.126;11.546;2022-12-07T14:42:15;4.80;94.00
9179;DHT22;4624;48.126;11.546;2022-12-07T14:44:41;4.70;93.90
9179;DHT22;4624;48.126;11.546;2022-12-07T14:47:10;4.70;94.00
9179;DHT22;4624;48.126;11.546;2022-12-07T14:49:37;4.60;93.90
9179;DHT22;4624;48.126;11.546;2022-12-07T14:52:05;4.70;93.90
9179;DHT22;4624;48.126;11.546;2022-12-07T14:54:33;4.60;93.80
9179;DHT22;4624;48.126;11.546;2022-12-07T14:56:59;4.50;93.70
9179;DHT22;4624;48.126;11.546;2022-12-07T14:59:26;4.50;93.70
9179;DHT22;4624;48.126;11.546;2022-12-07T15:01:53;4.50;93.80
9179;DHT22;4624;48.126;11.546;2022-12-07T15:04:21;4.40;93.80
9179;DHT22;4624;48.126;11.546;2022-12-07T15:06:56;4.40;93.80
9179;DHT22;4624;48.126;11.546;2022-12-07T15:09:22;4.40;93.80
9179;DHT22;4624;48.126;11.546;2022-12-07T15:11:49;4.30;93.80
9179;DHT22;4624;48.126;11.546;2022-12-07T15:14:16;4.20;93.90
9179;DHT22;4624;48.126;11.546;2022-12-07T15:16:43;4.20;93.90
9179;DHT22;4624;48.126;11.546;2022-12-07T15:19:14;4.20;94.10
9179;DHT22;4624;48.126;11.546;2022-12-07T15:21:43;4.10;94.30
9179;DHT22;4624;48.126;11.546;2022-12-07T15:24:10;4.00;94.40
9179;DHT22;4624;48.126;11.546;2022-12-07T15:26:38;4.00;94.60
9179;DHT22;4624;48.126;11.546;2022-12-07T15:29:05;3.90;94.80
9179;DHT22;4624;48.126;11.546;2022-12-07T15:31:33;3.90;95.00
9179;DHT22;4624;48.126;11.546;2022-12-07T15:34:00;3.90;95.20
9179;DHT22;4624;48.126;11.546;2022-12-07T15:36:28;3.80;95.40
9179;DHT22;4624;48.126;11.546;2022-12-07T15:38:58;3.80;95.60
9179;DHT22;4624;48.126;11.546;2022-12-07T15:41:25;3.80;95.70
9179;DHT22;4624;48.126;11.546;2022-12-07T15:43:52;3.70;95.80
9179;DHT22;4624;48.126;11.546;2022-12-07T15:46:38;3.70;96.00
9179;DHT22;4624;48.126;11.546;2022-12-07T15:49:08;3.80;96.20
9179;DHT22;4624;48.126;11.546;2022-12-07T15:51:35;3.70;96.20
9179;DHT22;4624;48.126;11.546;2022-12-07T15:54:03;3.80;96.40
9179;DHT22;4624;48.126;11.546;2022-12-07T15:56:30;3.70;96.50
9179;DHT22;4624;48.126;11.546;2022-12-07T15:58:57;3.80;96.70
9179;DHT22;4624;48.126;11.546;2022-12-07T16:01:24;3.80;96.80
9179;DHT22;4624;48.126;11.546;2022-12-07T16:03:50;3.70;96.90
9179;DHT22;4624;48.126;11.546;2022-12-07T16:06:17;3.70;96.90
9179;DHT22;4624;48.126;11.546;2022-12-07T16:08:45;3.70;97.00
9179;DHT22;4624;48.126;11.546;2022-12-07T16:11:14;3.70;97.10
9179;DHT22;4624;48.126;11.546;2022-12-07T16:13:40;3.70;97.30
9179;DHT22;4624;48.126;11.546;2022-12-07T16:16:11;3.70;97.30
9179;DHT22;4624;48.126;11.546;2022-12-07T16:18:39;3.70;97.50
9179;DHT22;4624;48.126;11.546;2022-12-07T16:21:06;3.70;97.50
9179;DHT22;4624;48.126;11.546;2022-12-07T16:23:33;3.70;97.70
9179;DHT22;4624;48.126;11.546;2022-12-07T16:26:07;3.60;97.70
9179;DHT22;4624;48.126;11.546;2022-12-07T16:28:35;3.60;97.80
9179;DHT22;4624;48.126;11.546;2022-12-07T16:31:06;3.60;97.90
9179;DHT22;4624;48.126;11.546;2022-12-07T16:33:34;3.60;98.00
9179;DHT22;4624;48.126;11.546;2022-12-07T16:36:03;3.60;98.40
9179;DHT22;4624;48.126;11.546;2022-12-07T16:38:31;3.60;98.10
9179;DHT22;4624;48.126;11.546;2022-12-07T16:40:57;3.60;98.20
9179;DHT22;4624;48.126;11.546;2022-12-07T16:43:24;3.60;98.20
9179;DHT22;4624;48.126;11.546;2022-12-07T16:45:52;3.60;98.30
9179;DHT22;4624;48.126;11.546;2022-12-07T16:48:19;3.60;98.40